Port Leyden, NY

7:14 AM EDT on May 26, 2015 (GMT -0400)
KENTNER RD., TUGHILL PLATEAU | | Change Station
CLOSE
Current Station
Personal Weather Station
Location: Constableville, NY
Elevation: 1253 ft
Nearby Weather Stations

Elev 1253 ft 43.59 °N, 75.38 °W | Updated 7 seconds ago

Overcast
Overcast
66.9 °F
Feels Like 66.9 °F
N
10.3
Wind Variable Wind from WSW
Gusts 13.0 mph

Today
High -- | Low -- °F
--% Chance of Precip.
Yesterday
High -- | Low -- °F
Precip. -- in
5:26 AM 8:30 PM
First Quarter, 57% visible
Pressure 30.09 in
Visibility 10.0 miles
Clouds Mostly Cloudy 4300 ft
Overcast 6000 ft
Dew Point 62 °F
Humidity 84%
Rainfall 0.04 in
Snow Depth Not available.
UV 0 out of 12
Pollen 2.30 out of 12
Air Quality Not available.
Flu Activity Widespread
METAR KRME 261053Z 33003KT 10SM BKN043 OVC060 21/16 A3011 RMK AO2 SLP190 T02060161

More Conditions Fewer Conditions

Pressure 30.09 in
Visibility 10.0 miles
Clouds Mostly Cloudy 4300 ft
Overcast 6000 ft
Dew Point 62 °F
Humidity 84%
Rainfall 0.04 in
Snow Depth Not available.
UV 0 out of 12
Pollen 2.30 out of 12
Air Quality Not available.
Flu Activity Widespread
METAR KRME 261053Z 33003KT 10SM BKN043 OVC060 21/16 A3011 RMK AO2 SLP190 T02060161

More Conditions Fewer Conditions

10-Day Weather Forecast

Almanac

Astronomy

May. 26, 2015 Rise Set
Actual Time
Civil Twilight
Nautical Twilight
Astronomical Twilight
Moon
Length of Visible Light
Length of Day
Tomorrow will be .
, % of the Moon is Illuminated

Today's Extremes

State Highs State Lows

Community

WunderPhotos

Upload Photos

1,824,305 photos uploaded!

WunderBlogs® & News

Nearby

Air Quality

  Air Quality AQ Index Pollutant
Not available.

Snow Depth

Station Depth Elevation

Earthquake Activity

City Distance Mag. Time & Date
Minimum magnitude displayed is 2.5.

Coastal Water Temperatures

Place Temperature

Stations

Nearby Weather Stations

Station Location Temp. Windchill Dew Point Humidity Wind Precip. Elev Updated Type